sensor_id;sensor_type;location;lat;lon;timestamp;P1;durP1;ratioP1;P2;durP2;ratioP2
69900;SDS011;57183;50.930;5.406;2023-05-10T00:01:47;15.70;;;10.15;;
69900;SDS011;57183;50.930;5.406;2023-05-10T00:04:13;17.17;;;10.23;;
69900;SDS011;57183;50.930;5.406;2023-05-10T00:06:38;17.98;;;11.05;;
69900;SDS011;57183;50.930;5.406;2023-05-10T00:09:04;18.92;;;10.70;;
69900;SDS011;57183;50.930;5.406;2023-05-10T00:11:30;14.30;;;9.90;;
69900;SDS011;57183;50.930;5.406;2023-05-10T00:13:55;18.25;;;10.23;;
69900;SDS011;57183;50.930;5.406;2023-05-10T00:16:21;16.90;;;10.40;;
69900;SDS011;57183;50.930;5.406;2023-05-10T00:18:47;19.23;;;10.32;;
69900;SDS011;57183;50.930;5.406;2023-05-10T00:21:13;15.90;;;10.13;;
69900;SDS011;57183;50.930;5.406;2023-05-10T00:23:38;16.25;;;9.82;;
69900;SDS011;57183;50.930;5.406;2023-05-10T00:26:04;15.93;;;9.88;;
69900;SDS011;57183;50.930;5.406;2023-05-10T00:28:29;18.95;;;10.85;;
69900;SDS011;57183;50.930;5.406;2023-05-10T00:30:55;15.75;;;10.82;;
69900;SDS011;57183;50.930;5.406;2023-05-10T00:33:21;16.55;;;9.63;;
69900;SDS011;57183;50.930;5.406;2023-05-10T00:35:47;19.27;;;11.02;;
69900;SDS011;57183;50.930;5.406;2023-05-10T00:38:12;15.52;;;10.88;;
69900;SDS011;57183;50.930;5.406;2023-05-10T00:40:38;17.77;;;10.70;;
69900;SDS011;57183;50.930;5.406;2023-05-10T00:43:04;17.48;;;10.95;;
69900;SDS011;57183;50.930;5.406;2023-05-10T00:45:32;13.27;;;9.50;;
69900;SDS011;57183;50.930;5.406;2023-05-10T00:48:01;20.42;;;10.82;;
69900;SDS011;57183;50.930;5.406;2023-05-10T00:50:28;16.90;;;10.07;;
69900;SDS011;57183;50.930;5.406;2023-05-10T00:52:55;13.25;;;9.98;;
69900;SDS011;57183;50.930;5.406;2023-05-10T00:55:23;16.35;;;10.55;;
69900;SDS011;57183;50.930;5.406;2023-05-10T00:57:49;15.35;;;9.73;;
69900;SDS011;57183;50.930;5.406;2023-05-10T01:00:15;14.30;;;10.00;;
69900;SDS011;57183;50.930;5.406;2023-05-10T01:02:44;14.95;;;10.35;;
69900;SDS011;57183;50.930;5.406;2023-05-10T01:05:11;13.43;;;9.25;;
69900;SDS011;57183;50.930;5.406;2023-05-10T01:07:37;12.90;;;9.75;;
69900;SDS011;57183;50.930;5.406;2023-05-10T01:10:03;17.08;;;10.00;;
69900;SDS011;57183;50.930;5.406;2023-05-10T01:12:30;19.60;;;10.23;;
69900;SDS011;57183;50.930;5.406;2023-05-10T01:14:56;14.90;;;10.07;;
69900;SDS011;57183;50.930;5.406;2023-05-10T01:17:23;15.50;;;10.48;;
69900;SDS011;57183;50.930;5.406;2023-05-10T01:19:49;20.10;;;9.93;;
69900;SDS011;57183;50.930;5.406;2023-05-10T01:22:30;18.35;;;11.00;;
69900;SDS011;57183;50.930;5.406;2023-05-10T01:38:18;16.90;;;9.77;;
69900;SDS011;57183;50.930;5.406;2023-05-10T01:41:15;18.40;;;10.95;;
69900;SDS011;57183;50.930;5.406;2023-05-10T01:46:40;19.42;;;12.05;;
69900;SDS011;57183;50.930;5.406;2023-05-10T01:49:10;22.55;;;11.45;;
69900;SDS011;57183;50.930;5.406;2023-05-10T01:51:48;21.90;;;11.73;;
69900;SDS011;57183;50.930;5.406;2023-05-10T01:54:17;20.20;;;10.40;;
69900;SDS011;57183;50.930;5.406;2023-05-10T01:56:45;18.52;;;11.18;;
69900;SDS011;57183;50.930;5.406;2023-05-10T01:59:16;21.30;;;11.50;;
69900;SDS011;57183;50.930;5.406;2023-05-10T02:01:44;21.92;;;11.95;;
69900;SDS011;57183;50.930;5.406;2023-05-10T02:04:13;17.95;;;9.80;;
69900;SDS011;57183;50.930;5.406;2023-05-10T02:06:42;20.63;;;11.02;;
69900;SDS011;57183;50.930;5.406;2023-05-10T02:09:10;19.25;;;11.63;;
69900;SDS011;57183;50.930;5.406;2023-05-10T02:11:38;21.77;;;11.63;;
69900;SDS011;57183;50.930;5.406;2023-05-10T02:14:07;23.73;;;12.23;;
69900;SDS011;57183;50.930;5.406;2023-05-10T02:16:36;27.88;;;12.60;;
69900;SDS011;57183;50.930;5.406;2023-05-10T02:19:04;22.00;;;11.77;;
69900;SDS011;57183;50.930;5.406;2023-05-10T02:21:31;26.80;;;12.25;;
69900;SDS011;57183;50.930;5.406;2023-05-10T02:23:58;23.67;;;10.93;;
69900;SDS011;57183;50.930;5.406;2023-05-10T02:26:25;20.35;;;11.43;;
69900;SDS011;57183;50.930;5.406;2023-05-10T02:28:53;25.02;;;12.68;;
69900;SDS011;57183;50.930;5.406;2023-05-10T02:31:19;26.25;;;10.85;;
69900;SDS011;57183;50.930;5.406;2023-05-10T02:33:46;27.30;;;12.93;;
69900;SDS011;57183;50.930;5.406;2023-05-10T02:36:13;21.77;;;11.95;;
69900;SDS011;57183;50.930;5.406;2023-05-10T02:38:40;23.52;;;11.55;;
69900;SDS011;57183;50.930;5.406;2023-05-10T02:41:07;26.08;;;12.07;;
69900;SDS011;57183;50.930;5.406;2023-05-10T02:43:35;26.38;;;13.55;;
69900;SDS011;57183;50.930;5.406;2023-05-10T02:46:02;23.00;;;11.93;;
69900;SDS011;57183;50.930;5.406;2023-05-10T02:48:28;24.52;;;12.25;;
69900;SDS011;57183;50.930;5.406;2023-05-10T02:50:56;29.48;;;12.35;;
69900;SDS011;57183;50.930;5.406;2023-05-10T02:53:30;23.95;;;12.30;;
69900;SDS011;57183;50.930;5.406;2023-05-10T02:55:57;27.05;;;12.13;;
69900;SDS011;57183;50.930;5.406;2023-05-10T02:58:25;25.70;;;13.20;;
69900;SDS011;57183;50.930;5.406;2023-05-10T03:00:52;23.38;;;11.50;;
69900;SDS011;57183;50.930;5.406;2023-05-10T03:03:18;23.35;;;13.02;;
69900;SDS011;57183;50.930;5.406;2023-05-10T03:05:44;22.67;;;13.35;;
69900;SDS011;57183;50.930;5.406;2023-05-10T03:08:10;20.35;;;11.57;;
69900;SDS011;57183;50.930;5.406;2023-05-10T03:10:38;21.75;;;12.05;;
69900;SDS011;57183;50.930;5.406;2023-05-10T03:13:31;29.98;;;11.52;;
69900;SDS011;57183;50.930;5.406;2023-05-10T03:21:16;22.20;;;11.88;;
69900;SDS011;57183;50.930;5.406;2023-05-10T03:26:17;25.00;;;13.90;;
69900;SDS011;57183;50.930;5.406;2023-05-10T03:28:48;22.90;;;11.57;;
69900;SDS011;57183;50.930;5.406;2023-05-10T03:31:14;25.77;;;13.27;;
69900;SDS011;57183;50.930;5.406;2023-05-10T03:33:47;25.65;;;14.55;;
69900;SDS011;57183;50.930;5.406;2023-05-10T03:36:13;31.27;;;12.57;;
69900;SDS011;57183;50.930;5.406;2023-05-10T03:38:39;26.75;;;13.20;;
69900;SDS011;57183;50.930;5.406;2023-05-10T03:41:05;24.40;;;12.85;;
69900;SDS011;57183;50.930;5.406;2023-05-10T03:43:31;28.13;;;12.80;;
69900;SDS011;57183;50.930;5.406;2023-05-10T03:45:56;24.67;;;12.50;;
69900;SDS011;57183;50.930;5.406;2023-05-10T03:48:22;26.33;;;14.23;;
69900;SDS011;57183;50.930;5.406;2023-05-10T03:50:47;24.13;;;13.32;;
69900;SDS011;57183;50.930;5.406;2023-05-10T03:53:14;24.45;;;13.32;;
69900;SDS011;57183;50.930;5.406;2023-05-10T03:55:40;22.63;;;13.45;;
69900;SDS011;57183;50.930;5.406;2023-05-10T03:58:06;29.83;;;14.48;;
69900;SDS011;57183;50.930;5.406;2023-05-10T04:00:35;29.13;;;13.77;;
69900;SDS011;57183;50.930;5.406;2023-05-10T04:03:01;22.70;;;13.50;;
69900;SDS011;57183;50.930;5.406;2023-05-10T04:05:26;27.45;;;13.40;;
69900;SDS011;57183;50.930;5.406;2023-05-10T04:07:52;31.55;;;14.13;;
69900;SDS011;57183;50.930;5.406;2023-05-10T04:10:17;25.40;;;13.88;;
69900;SDS011;57183;50.930;5.406;2023-05-10T04:12:43;25.35;;;14.13;;
69900;SDS011;57183;50.930;5.406;2023-05-10T04:15:09;28.15;;;13.88;;
69900;SDS011;57183;50.930;5.406;2023-05-10T04:17:35;30.17;;;14.68;;
69900;SDS011;57183;50.930;5.406;2023-05-10T04:20:00;33.03;;;14.85;;
69900;SDS011;57183;50.930;5.406;2023-05-10T04:22:26;28.98;;;14.15;;
69900;SDS011;57183;50.930;5.406;2023-05-10T04:24:54;35.53;;;14.23;;
69900;SDS011;57183;50.930;5.406;2023-05-10T04:27:19;28.35;;;13.35;;
69900;SDS011;57183;50.930;5.406;2023-05-10T04:29:45;26.90;;;13.52;;
69900;SDS011;57183;50.930;5.406;2023-05-10T04:32:11;32.08;;;13.40;;
69900;SDS011;57183;50.930;5.406;2023-05-10T04:34:36;29.50;;;14.63;;
69900;SDS011;57183;50.930;5.406;2023-05-10T04:37:02;32.70;;;14.75;;
69900;SDS011;57183;50.930;5.406;2023-05-10T04:39:28;31.90;;;14.65;;
69900;SDS011;57183;50.930;5.406;2023-05-10T04:41:54;32.40;;;14.73;;
69900;SDS011;57183;50.930;5.406;2023-05-10T04:44:19;27.23;;;14.07;;
69900;SDS011;57183;50.930;5.406;2023-05-10T04:46:45;37.40;;;15.48;;
69900;SDS011;57183;50.930;5.406;2023-05-10T04:49:11;32.42;;;15.15;;
69900;SDS011;57183;50.930;5.406;2023-05-10T04:51:36;36.20;;;17.05;;
69900;SDS011;57183;50.930;5.406;2023-05-10T04:54:02;29.98;;;15.57;;
69900;SDS011;57183;50.930;5.406;2023-05-10T04:56:28;36.53;;;15.75;;
69900;SDS011;57183;50.930;5.406;2023-05-10T04:58:53;38.58;;;15.88;;
69900;SDS011;57183;50.930;5.406;2023-05-10T05:01:19;37.65;;;14.90;;
69900;SDS011;57183;50.930;5.406;2023-05-10T05:03:45;40.35;;;17.58;;
69900;SDS011;57183;50.930;5.406;2023-05-10T05:06:10;36.10;;;15.70;;
69900;SDS011;57183;50.930;5.406;2023-05-10T05:08:36;32.05;;;14.05;;
69900;SDS011;57183;50.930;5.406;2023-05-10T05:11:02;30.95;;;15.48;;
69900;SDS011;57183;50.930;5.406;2023-05-10T05:13:28;33.10;;;15.95;;
69900;SDS011;57183;50.930;5.406;2023-05-10T05:15:53;33.20;;;15.73;;
69900;SDS011;57183;50.930;5.406;2023-05-10T05:18:20;33.97;;;15.85;;
69900;SDS011;57183;50.930;5.406;2023-05-10T05:20:46;35.70;;;16.95;;
69900;SDS011;57183;50.930;5.406;2023-05-10T05:23:11;37.83;;;17.58;;
69900;SDS011;57183;50.930;5.406;2023-05-10T05:25:37;40.63;;;18.23;;
69900;SDS011;57183;50.930;5.406;2023-05-10T05:28:03;42.90;;;19.60;;
69900;SDS011;57183;50.930;5.406;2023-05-10T05:30:28;46.72;;;19.60;;
69900;SDS011;57183;50.930;5.406;2023-05-10T05:32:54;55.05;;;20.63;;
69900;SDS011;57183;50.930;5.406;2023-05-10T05:35:20;44.63;;;18.58;;
69900;SDS011;57183;50.930;5.406;2023-05-10T05:37:45;47.85;;;20.40;;
69900;SDS011;57183;50.930;5.406;2023-05-10T05:40:14;59.05;;;21.38;;
69900;SDS011;57183;50.930;5.406;2023-05-10T05:42:40;71.65;;;25.08;;
69900;SDS011;57183;50.930;5.406;2023-05-10T05:45:06;71.70;;;24.02;;
69900;SDS011;57183;50.930;5.406;2023-05-10T05:47:33;73.68;;;24.85;;
69900;SDS011;57183;50.930;5.406;2023-05-10T05:49:59;80.72;;;26.40;;
69900;SDS011;57183;50.930;5.406;2023-05-10T05:52:25;68.22;;;25.08;;
69900;SDS011;57183;50.930;5.406;2023-05-10T05:54:50;84.10;;;27.35;;
69900;SDS011;57183;50.930;5.406;2023-05-10T05:57:16;78.68;;;26.25;;
69900;SDS011;57183;50.930;5.406;2023-05-10T05:59:41;75.07;;;25.27;;
69900;SDS011;57183;50.930;5.406;2023-05-10T06:02:09;76.22;;;25.48;;
69900;SDS011;57183;50.930;5.406;2023-05-10T06:04:35;83.10;;;25.52;;
69900;SDS011;57183;50.930;5.406;2023-05-10T06:07:01;86.07;;;27.55;;
69900;SDS011;57183;50.930;5.406;2023-05-10T06:09:26;74.13;;;25.92;;
69900;SDS011;57183;50.930;5.406;2023-05-10T06:11:52;69.78;;;26.42;;
69900;SDS011;57183;50.930;5.406;2023-05-10T06:14:19;79.00;;;26.45;;
69900;SDS011;57183;50.930;5.406;2023-05-10T06:16:45;83.90;;;26.75;;
69900;SDS011;57183;50.930;5.406;2023-05-10T06:19:11;81.50;;;25.70;;
69900;SDS011;57183;50.930;5.406;2023-05-10T06:21:37;68.28;;;23.98;;
69900;SDS011;57183;50.930;5.406;2023-05-10T06:24:03;70.82;;;25.90;;
69900;SDS011;57183;50.930;5.406;2023-05-10T06:26:28;74.45;;;24.40;;
69900;SDS011;57183;50.930;5.406;2023-05-10T06:28:54;78.40;;;24.55;;
69900;SDS011;57183;50.930;5.406;2023-05-10T06:31:20;73.10;;;24.75;;
69900;SDS011;57183;50.930;5.406;2023-05-10T06:33:46;83.07;;;27.00;;
69900;SDS011;57183;50.930;5.406;2023-05-10T06:36:11;71.10;;;24.33;;
69900;SDS011;57183;50.930;5.406;2023-05-10T06:38:38;74.13;;;25.92;;
69900;SDS011;57183;50.930;5.406;2023-05-10T06:41:04;83.13;;;27.08;;
69900;SDS011;57183;50.930;5.406;2023-05-10T06:43:30;83.82;;;27.23;;
69900;SDS011;57183;50.930;5.406;2023-05-10T06:45:56;88.65;;;26.67;;
69900;SDS011;57183;50.930;5.406;2023-05-10T06:48:22;79.47;;;25.02;;
69900;SDS011;57183;50.930;5.406;2023-05-10T06:50:48;72.80;;;23.77;;
69900;SDS011;57183;50.930;5.406;2023-05-10T06:53:14;77.72;;;25.75;;
69900;SDS011;57183;50.930;5.406;2023-05-10T06:55:40;68.45;;;24.67;;
69900;SDS011;57183;50.930;5.406;2023-05-10T06:58:06;66.43;;;24.05;;
69900;SDS011;57183;50.930;5.406;2023-05-10T07:00:31;72.45;;;24.88;;
69900;SDS011;57183;50.930;5.406;2023-05-10T07:02:57;68.35;;;22.98;;
69900;SDS011;57183;50.930;5.406;2023-05-10T07:05:23;68.03;;;23.65;;
69900;SDS011;57183;50.930;5.406;2023-05-10T07:07:49;73.25;;;23.70;;
69900;SDS011;57183;50.930;5.406;2023-05-10T07:10:14;58.85;;;22.52;;
69900;SDS011;57183;50.930;5.406;2023-05-10T07:12:40;70.32;;;23.45;;
69900;SDS011;57183;50.930;5.406;2023-05-10T07:15:06;66.30;;;24.05;;
69900;SDS011;57183;50.930;5.406;2023-05-10T07:17:32;65.35;;;23.25;;
69900;SDS011;57183;50.930;5.406;2023-05-10T07:19:58;64.70;;;21.92;;
69900;SDS011;57183;50.930;5.406;2023-05-10T07:22:25;69.43;;;21.98;;
69900;SDS011;57183;50.930;5.406;2023-05-10T07:24:51;59.47;;;21.35;;
69900;SDS011;57183;50.930;5.406;2023-05-10T07:27:17;71.97;;;24.15;;
69900;SDS011;57183;50.930;5.406;2023-05-10T07:29:42;71.32;;;22.38;;
69900;SDS011;57183;50.930;5.406;2023-05-10T07:32:08;70.65;;;21.20;;
69900;SDS011;57183;50.930;5.406;2023-05-10T07:34:33;59.67;;;22.67;;
69900;SDS011;57183;50.930;5.406;2023-05-10T07:36:59;57.90;;;22.95;;
69900;SDS011;57183;50.930;5.406;2023-05-10T07:39:26;59.22;;;21.88;;
69900;SDS011;57183;50.930;5.406;2023-05-10T07:41:52;52.83;;;20.55;;
69900;SDS011;57183;50.930;5.406;2023-05-10T07:44:18;52.60;;;19.73;;
69900;SDS011;57183;50.930;5.406;2023-05-10T07:46:45;57.65;;;21.00;;
69900;SDS011;57183;50.930;5.406;2023-05-10T07:49:11;51.28;;;20.27;;
69900;SDS011;57183;50.930;5.406;2023-05-10T07:51:37;51.55;;;20.38;;
69900;SDS011;57183;50.930;5.406;2023-05-10T07:54:02;49.53;;;18.90;;
69900;SDS011;57183;50.930;5.406;2023-05-10T07:56:31;58.78;;;20.88;;
69900;SDS011;57183;50.930;5.406;2023-05-10T07:59:00;52.47;;;19.38;;
69900;SDS011;57183;50.930;5.406;2023-05-10T08:01:30;54.00;;;20.73;;
69900;SDS011;57183;50.930;5.406;2023-05-10T08:04:00;44.92;;;20.40;;
69900;SDS011;57183;50.930;5.406;2023-05-10T08:06:26;37.10;;;15.05;;
69900;SDS011;57183;50.930;5.406;2023-05-10T08:08:53;28.35;;;11.70;;
69900;SDS011;57183;50.930;5.406;2023-05-10T08:11:22;16.33;;;7.05;;
69900;SDS011;57183;50.930;5.406;2023-05-10T08:13:48;10.23;;;6.10;;
69900;SDS011;57183;50.930;5.406;2023-05-10T08:16:15;8.07;;;4.07;;
69900;SDS011;57183;50.930;5.406;2023-05-10T08:18:42;5.85;;;4.03;;
69900;SDS011;57183;50.930;5.406;2023-05-10T08:21:09;6.95;;;4.05;;
69900;SDS011;57183;50.930;5.406;2023-05-10T08:23:36;6.63;;;3.97;;
69900;SDS011;57183;50.930;5.406;2023-05-10T08:26:02;5.45;;;3.10;;
69900;SDS011;57183;50.930;5.406;2023-05-10T08:28:28;5.25;;;3.15;;
69900;SDS011;57183;50.930;5.406;2023-05-10T08:30:54;7.15;;;3.67;;
69900;SDS011;57183;50.930;5.406;2023-05-10T08:33:19;5.15;;;2.90;;
69900;SDS011;57183;50.930;5.406;2023-05-10T08:35:45;4.80;;;2.35;;
69900;SDS011;57183;50.930;5.406;2023-05-10T08:38:11;4.53;;;2.45;;
69900;SDS011;57183;50.930;5.406;2023-05-10T08:40:38;3.78;;;2.58;;
69900;SDS011;57183;50.930;5.406;2023-05-10T08:43:08;6.97;;;2.53;;
69900;SDS011;57183;50.930;5.406;2023-05-10T08:45:40;4.55;;;2.40;;
69900;SDS011;57183;50.930;5.406;2023-05-10T08:48:08;4.38;;;2.88;;
69900;SDS011;57183;50.930;5.406;2023-05-10T08:50:38;6.18;;;2.75;;
69900;SDS011;57183;50.930;5.406;2023-05-10T08:53:06;3.67;;;2.33;;
69900;SDS011;57183;50.930;5.406;2023-05-10T08:55:35;5.25;;;2.70;;
69900;SDS011;57183;50.930;5.406;2023-05-10T08:58:05;5.65;;;3.45;;
69900;SDS011;57183;50.930;5.406;2023-05-10T09:00:31;3.80;;;2.60;;
69900;SDS011;57183;50.930;5.406;2023-05-10T09:02:58;5.57;;;2.95;;
69900;SDS011;57183;50.930;5.406;2023-05-10T09:05:24;5.35;;;2.75;;
69900;SDS011;57183;50.930;5.406;2023-05-10T09:07:50;5.85;;;3.33;;
69900;SDS011;57183;50.930;5.406;2023-05-10T09:10:16;5.95;;;3.40;;
69900;SDS011;57183;50.930;5.406;2023-05-10T09:12:43;5.22;;;3.40;;
69900;SDS011;57183;50.930;5.406;2023-05-10T09:15:11;7.72;;;5.35;;
69900;SDS011;57183;50.930;5.406;2023-05-10T09:17:44;8.18;;;4.15;;
69900;SDS011;57183;50.930;5.406;2023-05-10T09:20:10;8.43;;;4.28;;
69900;SDS011;57183;50.930;5.406;2023-05-10T09:22:36;8.02;;;3.85;;
69900;SDS011;57183;50.930;5.406;2023-05-10T09:25:12;5.65;;;3.67;;
69900;SDS011;57183;50.930;5.406;2023-05-10T09:27:39;6.18;;;4.15;;
69900;SDS011;57183;50.930;5.406;2023-05-10T09:30:06;6.78;;;4.43;;
69900;SDS011;57183;50.930;5.406;2023-05-10T09:32:37;7.93;;;4.38;;
69900;SDS011;57183;50.930;5.406;2023-05-10T09:35:09;8.68;;;4.35;;
69900;SDS011;57183;50.930;5.406;2023-05-10T09:37:36;5.93;;;4.45;;
69900;SDS011;57183;50.930;5.406;2023-05-10T09:40:06;9.10;;;4.22;;
69900;SDS011;57183;50.930;5.406;2023-05-10T09:45:24;8.65;;;4.70;;
69900;SDS011;57183;50.930;5.406;2023-05-10T09:47:51;7.15;;;4.40;;
69900;SDS011;57183;50.930;5.406;2023-05-10T09:50:18;7.15;;;4.60;;
69900;SDS011;57183;50.930;5.406;2023-05-10T09:55:17;8.52;;;5.80;;
69900;SDS011;57183;50.930;5.406;2023-05-10T09:57:48;7.75;;;5.32;;
69900;SDS011;57183;50.930;5.406;2023-05-10T10:00:23;12.30;;;6.38;;
69900;SDS011;57183;50.930;5.406;2023-05-10T10:02:58;13.18;;;5.78;;
69900;SDS011;57183;50.930;5.406;2023-05-10T10:05:43;10.85;;;6.75;;
69900;SDS011;57183;50.930;5.406;2023-05-10T10:08:09;10.63;;;6.18;;
69900;SDS011;57183;50.930;5.406;2023-05-10T10:10:36;11.65;;;7.30;;
69900;SDS011;57183;50.930;5.406;2023-05-10T10:13:02;10.38;;;6.53;;
69900;SDS011;57183;50.930;5.406;2023-05-10T10:15:27;12.98;;;7.20;;
69900;SDS011;57183;50.930;5.406;2023-05-10T10:17:53;14.52;;;8.55;;
69900;SDS011;57183;50.930;5.406;2023-05-10T10:20:20;20.05;;;7.47;;
69900;SDS011;57183;50.930;5.406;2023-05-10T10:22:47;15.65;;;9.23;;
69900;SDS011;57183;50.930;5.406;2023-05-10T10:25:14;15.15;;;7.30;;
69900;SDS011;57183;50.930;5.406;2023-05-10T10:36:00;15.70;;;9.60;;
69900;SDS011;57183;50.930;5.406;2023-05-10T10:38:37;17.88;;;9.13;;
69900;SDS011;57183;50.930;5.406;2023-05-10T10:41:34;18.02;;;9.25;;
69900;SDS011;57183;50.930;5.406;2023-05-10T10:47:02;17.50;;;9.32;;
69900;SDS011;57183;50.930;5.406;2023-05-10T10:49:34;16.73;;;9.25;;
69900;SDS011;57183;50.930;5.406;2023-05-10T10:57:26;16.60;;;9.27;;
69900;SDS011;57183;50.930;5.406;2023-05-10T11:02:43;17.17;;;8.65;;
69900;SDS011;57183;50.930;5.406;2023-05-10T11:07:58;14.45;;;8.77;;
69900;SDS011;57183;50.930;5.406;2023-05-10T11:10:25;13.68;;;7.43;;
69900;SDS011;57183;50.930;5.406;2023-05-10T11:13:07;16.00;;;8.52;;
69900;SDS011;57183;50.930;5.406;2023-05-10T11:15:38;11.05;;;7.10;;
69900;SDS011;57183;50.930;5.406;2023-05-10T11:18:23;10.02;;;7.18;;
69900;SDS011;57183;50.930;5.406;2023-05-10T11:20:57;10.55;;;7.00;;
69900;SDS011;57183;50.930;5.406;2023-05-10T11:26:11;11.27;;;7.07;;
69900;SDS011;57183;50.930;5.406;2023-05-10T11:28:43;9.73;;;5.95;;
69900;SDS011;57183;50.930;5.406;2023-05-10T11:31:13;9.68;;;6.22;;
69900;SDS011;57183;50.930;5.406;2023-05-10T11:33:50;9.07;;;6.28;;
69900;SDS011;57183;50.930;5.406;2023-05-10T11:36:35;8.73;;;6.07;;
69900;SDS011;57183;50.930;5.406;2023-05-10T11:39:01;8.65;;;5.97;;
69900;SDS011;57183;50.930;5.406;2023-05-10T11:41:28;9.00;;;5.35;;
69900;SDS011;57183;50.930;5.406;2023-05-10T11:43:55;9.48;;;6.43;;
69900;SDS011;57183;50.930;5.406;2023-05-10T11:46:23;7.60;;;5.00;;
69900;SDS011;57183;50.930;5.406;2023-05-10T11:48:51;7.28;;;5.40;;
69900;SDS011;57183;50.930;5.406;2023-05-10T11:51:21;7.97;;;5.28;;
69900;SDS011;57183;50.930;5.406;2023-05-10T11:53:49;6.55;;;4.68;;
69900;SDS011;57183;50.930;5.406;2023-05-10T11:56:17;8.88;;;5.97;;
69900;SDS011;57183;50.930;5.406;2023-05-10T11:58:43;8.68;;;5.45;;
69900;SDS011;57183;50.930;5.406;2023-05-10T12:01:09;10.48;;;6.85;;
69900;SDS011;57183;50.930;5.406;2023-05-10T12:03:35;9.85;;;5.03;;
69900;SDS011;57183;50.930;5.406;2023-05-10T12:06:02;9.43;;;4.88;;
69900;SDS011;57183;50.930;5.406;2023-05-10T12:08:29;7.30;;;4.40;;
69900;SDS011;57183;50.930;5.406;2023-05-10T12:11:05;6.15;;;4.57;;
69900;SDS011;57183;50.930;5.406;2023-05-10T12:13:32;7.75;;;4.75;;
69900;SDS011;57183;50.930;5.406;2023-05-10T12:16:11;7.38;;;5.07;;
69900;SDS011;57183;50.930;5.406;2023-05-10T12:18:38;5.22;;;4.05;;
69900;SDS011;57183;50.930;5.406;2023-05-10T12:21:06;6.88;;;4.03;;
69900;SDS011;57183;50.930;5.406;2023-05-10T12:23:31;4.93;;;3.85;;
69900;SDS011;57183;50.930;5.406;2023-05-10T12:26:03;4.85;;;3.38;;
69900;SDS011;57183;50.930;5.406;2023-05-10T12:28:30;4.63;;;3.35;;
69900;SDS011;57183;50.930;5.406;2023-05-10T12:30:57;5.03;;;3.47;;
69900;SDS011;57183;50.930;5.406;2023-05-10T12:33:24;5.57;;;3.78;;
69900;SDS011;57183;50.930;5.406;2023-05-10T12:35:51;4.57;;;2.80;;
69900;SDS011;57183;50.930;5.406;2023-05-10T12:41:11;4.30;;;3.08;;
69900;SDS011;57183;50.930;5.406;2023-05-10T12:43:38;5.43;;;2.53;;
69900;SDS011;57183;50.930;5.406;2023-05-10T12:46:08;4.40;;;3.17;;
69900;SDS011;57183;50.930;5.406;2023-05-10T12:48:35;3.58;;;2.85;;
69900;SDS011;57183;50.930;5.406;2023-05-10T12:51:02;5.57;;;2.90;;
69900;SDS011;57183;50.930;5.406;2023-05-10T12:53:29;4.80;;;4.07;;
69900;SDS011;57183;50.930;5.406;2023-05-10T12:55:55;4.72;;;3.22;;
69900;SDS011;57183;50.930;5.406;2023-05-10T12:58:21;4.25;;;2.83;;
69900;SDS011;57183;50.930;5.406;2023-05-10T13:00:47;3.92;;;3.00;;
69900;SDS011;57183;50.930;5.406;2023-05-10T13:03:12;4.30;;;2.95;;
69900;SDS011;57183;50.930;5.406;2023-05-10T13:05:39;5.50;;;2.65;;
69900;SDS011;57183;50.930;5.406;2023-05-10T13:08:05;4.93;;;2.95;;
69900;SDS011;57183;50.930;5.406;2023-05-10T13:10:31;4.32;;;2.72;;
69900;SDS011;57183;50.930;5.406;2023-05-10T13:12:57;3.78;;;2.92;;
69900;SDS011;57183;50.930;5.406;2023-05-10T13:15:23;3.40;;;2.50;;
69900;SDS011;57183;50.930;5.406;2023-05-10T13:17:50;2.92;;;2.45;;
69900;SDS011;57183;50.930;5.406;2023-05-10T13:20:16;3.88;;;2.47;;
69900;SDS011;57183;50.930;5.406;2023-05-10T13:22:45;7.75;;;2.35;;
69900;SDS011;57183;50.930;5.406;2023-05-10T13:25:11;2.63;;;1.65;;
69900;SDS011;57183;50.930;5.406;2023-05-10T13:27:37;2.08;;;1.50;;
69900;SDS011;57183;50.930;5.406;2023-05-10T13:30:07;2.88;;;2.15;;
69900;SDS011;57183;50.930;5.406;2023-05-10T13:32:33;2.20;;;2.00;;
69900;SDS011;57183;50.930;5.406;2023-05-10T13:34:59;2.30;;;1.77;;
69900;SDS011;57183;50.930;5.406;2023-05-10T13:37:25;3.00;;;1.77;;
69900;SDS011;57183;50.930;5.406;2023-05-10T13:39:51;3.60;;;2.30;;
69900;SDS011;57183;50.930;5.406;2023-05-10T13:42:17;2.45;;;2.03;;
69900;SDS011;57183;50.930;5.406;2023-05-10T13:44:43;3.53;;;2.95;;
69900;SDS011;57183;50.930;5.406;2023-05-10T13:47:09;3.25;;;1.98;;
69900;SDS011;57183;50.930;5.406;2023-05-10T13:49:35;3.17;;;2.85;;
69900;SDS011;57183;50.930;5.406;2023-05-10T13:52:01;3.72;;;3.00;;
69900;SDS011;57183;50.930;5.406;2023-05-10T13:54:32;4.32;;;2.15;;
69900;SDS011;57183;50.930;5.406;2023-05-10T13:56:59;2.58;;;2.20;;
69900;SDS011;57183;50.930;5.406;2023-05-10T13:59:24;3.90;;;2.45;;
69900;SDS011;57183;50.930;5.406;2023-05-10T14:01:50;2.47;;;2.10;;
69900;SDS011;57183;50.930;5.406;2023-05-10T14:04:16;2.15;;;1.63;;
69900;SDS011;57183;50.930;5.406;2023-05-10T14:06:42;1.65;;;1.40;;
69900;SDS011;57183;50.930;5.406;2023-05-10T14:09:07;1.50;;;1.38;;
69900;SDS011;57183;50.930;5.406;2023-05-10T14:11:33;2.17;;;1.40;;
69900;SDS011;57183;50.930;5.406;2023-05-10T14:13:59;2.13;;;1.55;;
69900;SDS011;57183;50.930;5.406;2023-05-10T14:16:25;3.50;;;1.65;;
69900;SDS011;57183;50.930;5.406;2023-05-10T14:18:51;1.77;;;1.23;;
69900;SDS011;57183;50.930;5.406;2023-05-10T14:21:16;2.03;;;1.25;;
69900;SDS011;57183;50.930;5.406;2023-05-10T14:23:42;3.40;;;1.20;;
69900;SDS011;57183;50.930;5.406;2023-05-10T14:26:08;1.92;;;1.30;;
69900;SDS011;57183;50.930;5.406;2023-05-10T14:28:33;1.90;;;1.50;;
69900;SDS011;57183;50.930;5.406;2023-05-10T14:30:59;2.25;;;1.50;;
69900;SDS011;57183;50.930;5.406;2023-05-10T14:33:25;2.00;;;1.20;;
69900;SDS011;57183;50.930;5.406;2023-05-10T14:35:50;1.60;;;1.00;;
69900;SDS011;57183;50.930;5.406;2023-05-10T14:38:16;2.65;;;0.90;;
69900;SDS011;57183;50.930;5.406;2023-05-10T14:40:42;1.25;;;1.00;;
69900;SDS011;57183;50.930;5.406;2023-05-10T14:43:08;2.13;;;1.00;;
69900;SDS011;57183;50.930;5.406;2023-05-10T14:45:33;1.30;;;1.15;;
69900;SDS011;57183;50.930;5.406;2023-05-10T14:47:59;1.67;;;1.17;;
69900;SDS011;57183;50.930;5.406;2023-05-10T14:50:25;2.97;;;1.20;;
69900;SDS011;57183;50.930;5.406;2023-05-10T14:52:52;1.58;;;1.05;;
69900;SDS011;57183;50.930;5.406;2023-05-10T14:55:18;1.15;;;1.00;;
69900;SDS011;57183;50.930;5.406;2023-05-10T14:57:45;1.45;;;1.00;;
69900;SDS011;57183;50.930;5.406;2023-05-10T15:00:12;3.55;;;0.80;;
69900;SDS011;57183;50.930;5.406;2023-05-10T15:02:40;1.33;;;0.90;;
69900;SDS011;57183;50.930;5.406;2023-05-10T15:05:06;0.85;;;0.65;;
69900;SDS011;57183;50.930;5.406;2023-05-10T15:07:32;0.88;;;0.73;;
69900;SDS011;57183;50.930;5.406;2023-05-10T15:09:58;1.05;;;0.77;;
69900;SDS011;57183;50.930;5.406;2023-05-10T15:12:23;1.13;;;0.90;;
69900;SDS011;57183;50.930;5.406;2023-05-10T15:14:49;1.13;;;0.73;;
69900;SDS011;57183;50.930;5.406;2023-05-10T15:17:15;0.95;;;0.70;;
69900;SDS011;57183;50.930;5.406;2023-05-10T15:19:41;2.33;;;0.95;;
69900;SDS011;57183;50.930;5.406;2023-05-10T15:22:07;1.38;;;0.82;;
69900;SDS011;57183;50.930;5.406;2023-05-10T15:24:33;1.02;;;0.80;;
69900;SDS011;57183;50.930;5.406;2023-05-10T15:26:59;1.40;;;0.82;;
69900;SDS011;57183;50.930;5.406;2023-05-10T15:29:25;1.40;;;0.93;;
69900;SDS011;57183;50.930;5.406;2023-05-10T15:31:51;0.80;;;0.65;;